sensor_id;sensor_type;location;lat;lon;timestamp;P1;durP1;ratioP1;P2;durP2;ratioP2
7607;SDS011;3845;48.120;11.534;2023-02-01T00:01:13;3.90;;;3.20;;
7607;SDS011;3845;48.120;11.534;2023-02-01T00:03:38;5.27;;;3.23;;
7607;SDS011;3845;48.120;11.534;2023-02-01T00:06:04;3.70;;;3.03;;
7607;SDS011;3845;48.120;11.534;2023-02-01T00:08:29;5.17;;;3.20;;
7607;SDS011;3845;48.120;11.534;2023-02-01T00:11:01;4.80;;;3.30;;
7607;SDS011;3845;48.120;11.534;2023-02-01T00:13:31;4.53;;;3.20;;
7607;SDS011;3845;48.120;11.534;2023-02-01T00:18:30;4.67;;;3.40;;
7607;SDS011;3845;48.120;11.534;2023-02-01T00:20:55;3.90;;;3.23;;
7607;SDS011;3845;48.120;11.534;2023-02-01T00:23:20;3.93;;;3.40;;
7607;SDS011;3845;48.120;11.534;2023-02-01T00:25:46;5.57;;;3.33;;
7607;SDS011;3845;48.120;11.534;2023-02-01T00:28:11;4.63;;;3.17;;
7607;SDS011;3845;48.120;11.534;2023-02-01T00:30:37;3.73;;;2.97;;
7607;SDS011;3845;48.120;11.534;2023-02-01T00:33:03;4.17;;;2.97;;
7607;SDS011;3845;48.120;11.534;2023-02-01T00:35:28;4.20;;;2.87;;
7607;SDS011;3845;48.120;11.534;2023-02-01T00:37:54;5.17;;;3.30;;
7607;SDS011;3845;48.120;11.534;2023-02-01T00:40:19;3.70;;;2.90;;
7607;SDS011;3845;48.120;11.534;2023-02-01T00:42:44;3.97;;;3.20;;
7607;SDS011;3845;48.120;11.534;2023-02-01T00:45:10;4.17;;;3.30;;
7607;SDS011;3845;48.120;11.534;2023-02-01T00:47:35;4.73;;;3.10;;
7607;SDS011;3845;48.120;11.534;2023-02-01T00:50:00;6.00;;;3.67;;
7607;SDS011;3845;48.120;11.534;2023-02-01T00:52:25;5.63;;;3.57;;
7607;SDS011;3845;48.120;11.534;2023-02-01T00:54:51;5.27;;;3.70;;
7607;SDS011;3845;48.120;11.534;2023-02-01T00:57:16;6.03;;;4.00;;
7607;SDS011;3845;48.120;11.534;2023-02-01T00:59:41;5.17;;;4.07;;
7607;SDS011;3845;48.120;11.534;2023-02-01T01:02:07;5.03;;;4.00;;
7607;SDS011;3845;48.120;11.534;2023-02-01T01:04:32;5.23;;;3.77;;
7607;SDS011;3845;48.120;11.534;2023-02-01T01:06:57;4.17;;;3.33;;
7607;SDS011;3845;48.120;11.534;2023-02-01T01:09:23;4.97;;;3.90;;
7607;SDS011;3845;48.120;11.534;2023-02-01T01:11:49;5.27;;;3.93;;
7607;SDS011;3845;48.120;11.534;2023-02-01T01:14:16;4.50;;;3.67;;
7607;SDS011;3845;48.120;11.534;2023-02-01T01:16:41;4.80;;;3.90;;
7607;SDS011;3845;48.120;11.534;2023-02-01T01:19:06;5.40;;;4.30;;
7607;SDS011;3845;48.120;11.534;2023-02-01T01:21:32;5.73;;;4.33;;
7607;SDS011;3845;48.120;11.534;2023-02-01T01:23:57;7.13;;;4.63;;
7607;SDS011;3845;48.120;11.534;2023-02-01T01:26:24;5.43;;;4.23;;
7607;SDS011;3845;48.120;11.534;2023-02-01T01:28:51;5.13;;;4.60;;
7607;SDS011;3845;48.120;11.534;2023-02-01T01:31:17;5.60;;;4.53;;
7607;SDS011;3845;48.120;11.534;2023-02-01T01:33:42;6.03;;;4.40;;
7607;SDS011;3845;48.120;11.534;2023-02-01T01:36:11;6.00;;;4.47;;
7607;SDS011;3845;48.120;11.534;2023-02-01T01:38:37;5.13;;;4.40;;
7607;SDS011;3845;48.120;11.534;2023-02-01T01:41:04;5.43;;;4.03;;
7607;SDS011;3845;48.120;11.534;2023-02-01T01:46:25;4.47;;;3.53;;
7607;SDS011;3845;48.120;11.534;2023-02-01T01:48:53;6.83;;;4.87;;
7607;SDS011;3845;48.120;11.534;2023-02-01T01:51:22;5.50;;;4.33;;
7607;SDS011;3845;48.120;11.534;2023-02-01T01:53:50;5.53;;;4.90;;
7607;SDS011;3845;48.120;11.534;2023-02-01T01:56:21;6.27;;;4.70;;
7607;SDS011;3845;48.120;11.534;2023-02-01T01:58:46;6.07;;;4.93;;
7607;SDS011;3845;48.120;11.534;2023-02-01T02:01:12;5.90;;;5.30;;
7607;SDS011;3845;48.120;11.534;2023-02-01T02:03:41;7.13;;;5.77;;
7607;SDS011;3845;48.120;11.534;2023-02-01T02:06:20;6.63;;;5.70;;
7607;SDS011;3845;48.120;11.534;2023-02-01T02:08:51;6.70;;;5.50;;
7607;SDS011;3845;48.120;11.534;2023-02-01T02:11:17;7.90;;;5.87;;
7607;SDS011;3845;48.120;11.534;2023-02-01T02:13:43;8.00;;;5.20;;
7607;SDS011;3845;48.120;11.534;2023-02-01T02:33:54;7.43;;;5.77;;
7607;SDS011;3845;48.120;11.534;2023-02-01T02:50:35;7.10;;;5.23;;
7607;SDS011;3845;48.120;11.534;2023-02-01T02:56:14;5.30;;;4.43;;
7607;SDS011;3845;48.120;11.534;2023-02-01T02:58:59;6.00;;;4.53;;
7607;SDS011;3845;48.120;11.534;2023-02-01T03:01:42;5.23;;;4.63;;
7607;SDS011;3845;48.120;11.534;2023-02-01T03:04:27;6.30;;;5.07;;
7607;SDS011;3845;48.120;11.534;2023-02-01T03:06:52;7.67;;;5.50;;
7607;SDS011;3845;48.120;11.534;2023-02-01T03:11:58;5.60;;;4.33;;
7607;SDS011;3845;48.120;11.534;2023-02-01T03:14:45;6.97;;;5.33;;
7607;SDS011;3845;48.120;11.534;2023-02-01T03:17:14;5.17;;;4.67;;
7607;SDS011;3845;48.120;11.534;2023-02-01T03:19:44;6.43;;;4.30;;
7607;SDS011;3845;48.120;11.534;2023-02-01T03:22:24;7.23;;;5.10;;
7607;SDS011;3845;48.120;11.534;2023-02-01T03:24:53;5.90;;;4.43;;
7607;SDS011;3845;48.120;11.534;2023-02-01T03:27:21;7.47;;;5.27;;
7607;SDS011;3845;48.120;11.534;2023-02-01T03:32:24;5.77;;;4.73;;
7607;SDS011;3845;48.120;11.534;2023-02-01T03:34:49;6.67;;;4.90;;
7607;SDS011;3845;48.120;11.534;2023-02-01T03:37:26;4.87;;;4.37;;
7607;SDS011;3845;48.120;11.534;2023-02-01T03:40:05;5.67;;;4.63;;
7607;SDS011;3845;48.120;11.534;2023-02-01T03:45:13;5.10;;;4.50;;
7607;SDS011;3845;48.120;11.534;2023-02-01T03:47:45;5.37;;;4.80;;
7607;SDS011;3845;48.120;11.534;2023-02-01T03:50:14;5.07;;;4.27;;
7607;SDS011;3845;48.120;11.534;2023-02-01T03:52:43;5.40;;;4.03;;
7607;SDS011;3845;48.120;11.534;2023-02-01T03:55:14;6.17;;;4.37;;
7607;SDS011;3845;48.120;11.534;2023-02-01T03:57:46;6.03;;;5.00;;
7607;SDS011;3845;48.120;11.534;2023-02-01T04:00:20;7.47;;;4.47;;
7607;SDS011;3845;48.120;11.534;2023-02-01T04:02:47;6.10;;;4.60;;
7607;SDS011;3845;48.120;11.534;2023-02-01T04:05:12;4.13;;;3.67;;
7607;SDS011;3845;48.120;11.534;2023-02-01T04:07:38;5.47;;;4.53;;
7607;SDS011;3845;48.120;11.534;2023-02-01T04:10:03;5.90;;;4.50;;
7607;SDS011;3845;48.120;11.534;2023-02-01T04:12:29;7.47;;;4.30;;
7607;SDS011;3845;48.120;11.534;2023-02-01T04:14:54;5.70;;;4.70;;
7607;SDS011;3845;48.120;11.534;2023-02-01T04:17:19;8.43;;;6.13;;
7607;SDS011;3845;48.120;11.534;2023-02-01T04:19:45;8.17;;;5.90;;
7607;SDS011;3845;48.120;11.534;2023-02-01T04:22:10;6.70;;;4.83;;
7607;SDS011;3845;48.120;11.534;2023-02-01T04:24:37;5.60;;;4.30;;
7607;SDS011;3845;48.120;11.534;2023-02-01T04:27:02;4.70;;;3.77;;
7607;SDS011;3845;48.120;11.534;2023-02-01T04:29:27;4.67;;;4.17;;
7607;SDS011;3845;48.120;11.534;2023-02-01T04:31:53;6.70;;;4.60;;
7607;SDS011;3845;48.120;11.534;2023-02-01T04:34:18;6.50;;;4.30;;
7607;SDS011;3845;48.120;11.534;2023-02-01T04:36:43;7.03;;;5.00;;
7607;SDS011;3845;48.120;11.534;2023-02-01T04:39:09;7.43;;;4.27;;
7607;SDS011;3845;48.120;11.534;2023-02-01T04:41:34;6.93;;;4.87;;
7607;SDS011;3845;48.120;11.534;2023-02-01T04:44:00;5.47;;;4.83;;
7607;SDS011;3845;48.120;11.534;2023-02-01T04:46:25;5.80;;;4.73;;
7607;SDS011;3845;48.120;11.534;2023-02-01T04:48:51;5.97;;;5.20;;
7607;SDS011;3845;48.120;11.534;2023-02-01T04:51:16;5.83;;;4.60;;
7607;SDS011;3845;48.120;11.534;2023-02-01T04:53:43;5.30;;;4.17;;
7607;SDS011;3845;48.120;11.534;2023-02-01T04:56:08;6.03;;;4.03;;
7607;SDS011;3845;48.120;11.534;2023-02-01T04:58:34;5.97;;;4.50;;
7607;SDS011;3845;48.120;11.534;2023-02-01T05:00:59;7.60;;;5.37;;
7607;SDS011;3845;48.120;11.534;2023-02-01T05:03:29;6.30;;;5.27;;
7607;SDS011;3845;48.120;11.534;2023-02-01T05:05:54;6.27;;;4.27;;
7607;SDS011;3845;48.120;11.534;2023-02-01T05:08:19;6.70;;;4.90;;
7607;SDS011;3845;48.120;11.534;2023-02-01T05:10:47;8.40;;;5.70;;
7607;SDS011;3845;48.120;11.534;2023-02-01T05:13:12;10.83;;;7.60;;
7607;SDS011;3845;48.120;11.534;2023-02-01T05:15:56;6.57;;;5.33;;
7607;SDS011;3845;48.120;11.534;2023-02-01T05:18:21;6.10;;;5.00;;
7607;SDS011;3845;48.120;11.534;2023-02-01T05:20:47;6.37;;;4.97;;
7607;SDS011;3845;48.120;11.534;2023-02-01T05:23:12;7.20;;;5.17;;
7607;SDS011;3845;48.120;11.534;2023-02-01T05:25:37;8.67;;;5.70;;
7607;SDS011;3845;48.120;11.534;2023-02-01T05:28:02;6.67;;;5.30;;
7607;SDS011;3845;48.120;11.534;2023-02-01T05:30:28;7.13;;;5.30;;
7607;SDS011;3845;48.120;11.534;2023-02-01T05:32:53;6.30;;;5.13;;
7607;SDS011;3845;48.120;11.534;2023-02-01T05:35:19;5.77;;;4.47;;
7607;SDS011;3845;48.120;11.534;2023-02-01T05:37:44;9.47;;;6.90;;
7607;SDS011;3845;48.120;11.534;2023-02-01T05:40:10;6.53;;;5.50;;
7607;SDS011;3845;48.120;11.534;2023-02-01T05:42:35;6.63;;;5.50;;
7607;SDS011;3845;48.120;11.534;2023-02-01T05:45:01;7.00;;;5.23;;
7607;SDS011;3845;48.120;11.534;2023-02-01T05:47:26;7.93;;;5.67;;
7607;SDS011;3845;48.120;11.534;2023-02-01T05:49:51;6.97;;;5.50;;
7607;SDS011;3845;48.120;11.534;2023-02-01T05:52:17;6.60;;;5.53;;
7607;SDS011;3845;48.120;11.534;2023-02-01T05:54:45;6.97;;;5.30;;
7607;SDS011;3845;48.120;11.534;2023-02-01T05:57:12;11.03;;;7.60;;
7607;SDS011;3845;48.120;11.534;2023-02-01T05:59:37;11.00;;;7.73;;
7607;SDS011;3845;48.120;11.534;2023-02-01T06:02:06;6.83;;;5.60;;
7607;SDS011;3845;48.120;11.534;2023-02-01T06:04:34;8.40;;;5.60;;
7607;SDS011;3845;48.120;11.534;2023-02-01T06:07:00;7.80;;;5.67;;
7607;SDS011;3845;48.120;11.534;2023-02-01T06:09:25;7.87;;;6.17;;
7607;SDS011;3845;48.120;11.534;2023-02-01T06:11:50;9.47;;;6.83;;
7607;SDS011;3845;48.120;11.534;2023-02-01T06:14:16;9.07;;;6.60;;
7607;SDS011;3845;48.120;11.534;2023-02-01T06:16:41;7.73;;;5.97;;
7607;SDS011;3845;48.120;11.534;2023-02-01T06:19:06;6.67;;;5.30;;
7607;SDS011;3845;48.120;11.534;2023-02-01T06:21:31;5.57;;;4.80;;
7607;SDS011;3845;48.120;11.534;2023-02-01T06:23:58;10.10;;;7.30;;
7607;SDS011;3845;48.120;11.534;2023-02-01T06:26:23;6.53;;;5.10;;
7607;SDS011;3845;48.120;11.534;2023-02-01T06:28:49;6.27;;;5.07;;
7607;SDS011;3845;48.120;11.534;2023-02-01T06:31:14;6.87;;;5.27;;
7607;SDS011;3845;48.120;11.534;2023-02-01T06:33:40;6.57;;;5.43;;
7607;SDS011;3845;48.120;11.534;2023-02-01T06:36:06;7.33;;;4.83;;
7607;SDS011;3845;48.120;11.534;2023-02-01T06:38:32;16.83;;;12.40;;
7607;SDS011;3845;48.120;11.534;2023-02-01T06:41:00;14.03;;;9.93;;
7607;SDS011;3845;48.120;11.534;2023-02-01T06:43:25;7.60;;;6.03;;
7607;SDS011;3845;48.120;11.534;2023-02-01T06:45:52;11.63;;;8.43;;
7607;SDS011;3845;48.120;11.534;2023-02-01T06:48:18;7.77;;;6.10;;
7607;SDS011;3845;48.120;11.534;2023-02-01T06:50:43;6.63;;;5.43;;
7607;SDS011;3845;48.120;11.534;2023-02-01T06:53:09;8.17;;;5.30;;
7607;SDS011;3845;48.120;11.534;2023-02-01T06:55:34;5.83;;;4.90;;
7607;SDS011;3845;48.120;11.534;2023-02-01T06:57:59;7.53;;;5.57;;
7607;SDS011;3845;48.120;11.534;2023-02-01T07:00:27;10.27;;;7.67;;
7607;SDS011;3845;48.120;11.534;2023-02-01T07:02:53;5.60;;;4.73;;
7607;SDS011;3845;48.120;11.534;2023-02-01T07:05:18;5.23;;;4.50;;
7607;SDS011;3845;48.120;11.534;2023-02-01T07:07:43;6.53;;;4.73;;
7607;SDS011;3845;48.120;11.534;2023-02-01T07:10:09;6.50;;;5.03;;
7607;SDS011;3845;48.120;11.534;2023-02-01T07:12:35;6.77;;;5.00;;
7607;SDS011;3845;48.120;11.534;2023-02-01T07:15:00;6.27;;;4.90;;
7607;SDS011;3845;48.120;11.534;2023-02-01T07:17:27;5.97;;;4.80;;
7607;SDS011;3845;48.120;11.534;2023-02-01T07:19:54;5.80;;;4.67;;
7607;SDS011;3845;48.120;11.534;2023-02-01T07:22:19;5.93;;;4.40;;
7607;SDS011;3845;48.120;11.534;2023-02-01T07:24:45;8.47;;;6.00;;
7607;SDS011;3845;48.120;11.534;2023-02-01T07:27:10;5.93;;;4.50;;
7607;SDS011;3845;48.120;11.534;2023-02-01T07:29:35;5.97;;;4.03;;
7607;SDS011;3845;48.120;11.534;2023-02-01T07:32:00;5.77;;;4.33;;
7607;SDS011;3845;48.120;11.534;2023-02-01T07:34:27;5.10;;;4.00;;
7607;SDS011;3845;48.120;11.534;2023-02-01T07:36:52;4.47;;;3.70;;
7607;SDS011;3845;48.120;11.534;2023-02-01T07:39:18;3.90;;;3.50;;
7607;SDS011;3845;48.120;11.534;2023-02-01T07:41:43;4.23;;;3.60;;
7607;SDS011;3845;48.120;11.534;2023-02-01T07:44:08;6.60;;;4.27;;
7607;SDS011;3845;48.120;11.534;2023-02-01T07:46:34;5.57;;;4.27;;
7607;SDS011;3845;48.120;11.534;2023-02-01T07:48:59;6.67;;;4.40;;
7607;SDS011;3845;48.120;11.534;2023-02-01T07:51:25;6.00;;;3.40;;
7607;SDS011;3845;48.120;11.534;2023-02-01T07:53:50;6.37;;;3.70;;
7607;SDS011;3845;48.120;11.534;2023-02-01T07:56:17;4.70;;;3.57;;
7607;SDS011;3845;48.120;11.534;2023-02-01T07:58:46;5.23;;;3.83;;
7607;SDS011;3845;48.120;11.534;2023-02-01T08:01:13;5.77;;;3.57;;
7607;SDS011;3845;48.120;11.534;2023-02-01T08:03:45;4.13;;;3.43;;
7607;SDS011;3845;48.120;11.534;2023-02-01T08:06:11;5.60;;;4.50;;
7607;SDS011;3845;48.120;11.534;2023-02-01T08:08:36;5.50;;;4.47;;
7607;SDS011;3845;48.120;11.534;2023-02-01T08:11:03;7.30;;;4.97;;
7607;SDS011;3845;48.120;11.534;2023-02-01T08:13:30;6.67;;;4.80;;
7607;SDS011;3845;48.120;11.534;2023-02-01T08:15:59;3.90;;;3.40;;
7607;SDS011;3845;48.120;11.534;2023-02-01T08:18:24;4.70;;;3.27;;
7607;SDS011;3845;48.120;11.534;2023-02-01T08:20:50;4.50;;;3.20;;
7607;SDS011;3845;48.120;11.534;2023-02-01T08:23:16;4.77;;;3.33;;
7607;SDS011;3845;48.120;11.534;2023-02-01T08:25:42;3.97;;;2.87;;
7607;SDS011;3845;48.120;11.534;2023-02-01T08:28:08;4.80;;;3.33;;
7607;SDS011;3845;48.120;11.534;2023-02-01T08:30:33;4.30;;;3.43;;
7607;SDS011;3845;48.120;11.534;2023-02-01T08:32:58;5.23;;;3.40;;
7607;SDS011;3845;48.120;11.534;2023-02-01T08:35:24;5.10;;;3.53;;
7607;SDS011;3845;48.120;11.534;2023-02-01T08:37:49;4.90;;;3.20;;
7607;SDS011;3845;48.120;11.534;2023-02-01T08:40:15;5.63;;;3.30;;
7607;SDS011;3845;48.120;11.534;2023-02-01T08:42:40;3.57;;;3.13;;
7607;SDS011;3845;48.120;11.534;2023-02-01T08:45:19;4.17;;;3.70;;
7607;SDS011;3845;48.120;11.534;2023-02-01T08:47:50;3.60;;;3.10;;
7607;SDS011;3845;48.120;11.534;2023-02-01T08:50:18;5.10;;;3.37;;
7607;SDS011;3845;48.120;11.534;2023-02-01T08:52:45;4.70;;;3.03;;
7607;SDS011;3845;48.120;11.534;2023-02-01T08:55:10;3.57;;;3.20;;
7607;SDS011;3845;48.120;11.534;2023-02-01T08:57:36;4.23;;;3.47;;
7607;SDS011;3845;48.120;11.534;2023-02-01T09:00:03;5.00;;;3.70;;
7607;SDS011;3845;48.120;11.534;2023-02-01T09:02:29;6.30;;;3.20;;
7607;SDS011;3845;48.120;11.534;2023-02-01T09:04:55;5.03;;;3.37;;
7607;SDS011;3845;48.120;11.534;2023-02-01T09:07:20;3.60;;;3.07;;
7607;SDS011;3845;48.120;11.534;2023-02-01T09:09:46;6.57;;;2.93;;
7607;SDS011;3845;48.120;11.534;2023-02-01T09:12:11;4.90;;;3.20;;
7607;SDS011;3845;48.120;11.534;2023-02-01T09:14:36;4.57;;;3.00;;
7607;SDS011;3845;48.120;11.534;2023-02-01T09:17:02;3.13;;;2.83;;
7607;SDS011;3845;48.120;11.534;2023-02-01T09:19:27;4.57;;;3.27;;
7607;SDS011;3845;48.120;11.534;2023-02-01T09:21:53;4.03;;;3.43;;
7607;SDS011;3845;48.120;11.534;2023-02-01T09:24:18;4.40;;;3.40;;
7607;SDS011;3845;48.120;11.534;2023-02-01T09:26:43;4.13;;;2.90;;
7607;SDS011;3845;48.120;11.534;2023-02-01T09:29:09;4.10;;;3.00;;
7607;SDS011;3845;48.120;11.534;2023-02-01T09:31:38;5.23;;;3.20;;
7607;SDS011;3845;48.120;11.534;2023-02-01T09:34:04;4.13;;;3.63;;
7607;SDS011;3845;48.120;11.534;2023-02-01T09:36:30;6.00;;;4.40;;
7607;SDS011;3845;48.120;11.534;2023-02-01T09:38:55;7.90;;;3.80;;
7607;SDS011;3845;48.120;11.534;2023-02-01T09:41:32;4.43;;;3.30;;
7607;SDS011;3845;48.120;11.534;2023-02-01T09:46:47;4.70;;;3.57;;
7607;SDS011;3845;48.120;11.534;2023-02-01T09:49:18;5.93;;;3.60;;
7607;SDS011;3845;48.120;11.534;2023-02-01T09:51:48;4.07;;;3.30;;
7607;SDS011;3845;48.120;11.534;2023-02-01T09:54:18;3.70;;;3.00;;
7607;SDS011;3845;48.120;11.534;2023-02-01T09:56:49;5.03;;;3.50;;
7607;SDS011;3845;48.120;11.534;2023-02-01T10:01:56;6.03;;;4.67;;
7607;SDS011;3845;48.120;11.534;2023-02-01T10:04:21;6.90;;;4.17;;
7607;SDS011;3845;48.120;11.534;2023-02-01T10:06:56;4.77;;;3.37;;
7607;SDS011;3845;48.120;11.534;2023-02-01T10:09:42;4.73;;;3.30;;
7607;SDS011;3845;48.120;11.534;2023-02-01T10:14:58;4.70;;;3.50;;
7607;SDS011;3845;48.120;11.534;2023-02-01T10:25:18;3.77;;;3.17;;
7607;SDS011;3845;48.120;11.534;2023-02-01T10:27:45;9.03;;;5.00;;
7607;SDS011;3845;48.120;11.534;2023-02-01T10:30:24;9.00;;;5.10;;
7607;SDS011;3845;48.120;11.534;2023-02-01T10:32:57;4.50;;;3.27;;
7607;SDS011;3845;48.120;11.534;2023-02-01T10:35:46;5.37;;;3.30;;
7607;SDS011;3845;48.120;11.534;2023-02-01T10:38:16;5.00;;;3.33;;
7607;SDS011;3845;48.120;11.534;2023-02-01T10:40:46;4.30;;;3.20;;
7607;SDS011;3845;48.120;11.534;2023-02-01T10:43:11;6.00;;;3.27;;
7607;SDS011;3845;48.120;11.534;2023-02-01T10:45:36;4.80;;;3.30;;
7607;SDS011;3845;48.120;11.534;2023-02-01T10:48:03;3.70;;;2.63;;
7607;SDS011;3845;48.120;11.534;2023-02-01T10:50:33;4.63;;;3.10;;
7607;SDS011;3845;48.120;11.534;2023-02-01T10:56:05;5.77;;;3.83;;
7607;SDS011;3845;48.120;11.534;2023-02-01T10:58:32;10.23;;;6.53;;
7607;SDS011;3845;48.120;11.534;2023-02-01T11:01:06;6.67;;;3.70;;
7607;SDS011;3845;48.120;11.534;2023-02-01T11:05:58;4.80;;;3.50;;
7607;SDS011;3845;48.120;11.534;2023-02-01T11:08:24;4.57;;;3.40;;
7607;SDS011;3845;48.120;11.534;2023-02-01T11:10:57;4.50;;;3.53;;
7607;SDS011;3845;48.120;11.534;2023-02-01T11:13:31;7.13;;;3.73;;
7607;SDS011;3845;48.120;11.534;2023-02-01T11:16:01;4.40;;;3.40;;
7607;SDS011;3845;48.120;11.534;2023-02-01T11:18:28;6.97;;;3.67;;
7607;SDS011;3845;48.120;11.534;2023-02-01T11:20:54;5.17;;;3.57;;
7607;SDS011;3845;48.120;11.534;2023-02-01T11:23:27;4.60;;;3.50;;
7607;SDS011;3845;48.120;11.534;2023-02-01T11:25:58;4.67;;;3.80;;
7607;SDS011;3845;48.120;11.534;2023-02-01T11:28:25;6.33;;;4.00;;
7607;SDS011;3845;48.120;11.534;2023-02-01T11:30:53;4.53;;;3.63;;
7607;SDS011;3845;48.120;11.534;2023-02-01T11:33:20;5.90;;;4.83;;
7607;SDS011;3845;48.120;11.534;2023-02-01T11:35:54;5.73;;;3.70;;
7607;SDS011;3845;48.120;11.534;2023-02-01T11:38:22;9.43;;;5.87;;
7607;SDS011;3845;48.120;11.534;2023-02-01T11:40:52;8.10;;;4.60;;
7607;SDS011;3845;48.120;11.534;2023-02-01T11:43:27;8.23;;;3.80;;
7607;SDS011;3845;48.120;11.534;2023-02-01T11:45:58;4.70;;;3.70;;
7607;SDS011;3845;48.120;11.534;2023-02-01T11:48:26;6.63;;;3.80;;
7607;SDS011;3845;48.120;11.534;2023-02-01T11:53:36;5.60;;;3.77;;
7607;SDS011;3845;48.120;11.534;2023-02-01T12:06:55;7.63;;;4.40;;
7607;SDS011;3845;48.120;11.534;2023-02-01T12:31:23;6.10;;;3.87;;
7607;SDS011;3845;48.120;11.534;2023-02-01T12:36:43;7.23;;;3.80;;
7607;SDS011;3845;48.120;11.534;2023-02-01T12:42:18;8.47;;;4.03;;
7607;SDS011;3845;48.120;11.534;2023-02-01T12:47:30;11.87;;;6.10;;
7607;SDS011;3845;48.120;11.534;2023-02-01T12:50:02;8.20;;;4.00;;
7607;SDS011;3845;48.120;11.534;2023-02-01T12:52:48;5.73;;;3.57;;
7607;SDS011;3845;48.120;11.534;2023-02-01T12:57:45;5.97;;;3.40;;
7607;SDS011;3845;48.120;11.534;2023-02-01T13:02:47;7.23;;;3.13;;
7607;SDS011;3845;48.120;11.534;2023-02-01T13:05:21;5.80;;;3.70;;
7607;SDS011;3845;48.120;11.534;2023-02-01T13:07:57;6.17;;;3.50;;
7607;SDS011;3845;48.120;11.534;2023-02-01T13:13:08;6.60;;;4.43;;
7607;SDS011;3845;48.120;11.534;2023-02-01T13:15:39;5.53;;;3.17;;
7607;SDS011;3845;48.120;11.534;2023-02-01T13:18:06;6.07;;;3.37;;
7607;SDS011;3845;48.120;11.534;2023-02-01T13:20:42;7.23;;;4.13;;
7607;SDS011;3845;48.120;11.534;2023-02-01T13:23:29;9.83;;;3.90;;
7607;SDS011;3845;48.120;11.534;2023-02-01T13:25:56;6.43;;;3.53;;
7607;SDS011;3845;48.120;11.534;2023-02-01T13:39:53;5.83;;;3.37;;
7607;SDS011;3845;48.120;11.534;2023-02-01T13:42:31;5.80;;;3.80;;
7607;SDS011;3845;48.120;11.534;2023-02-01T13:45:01;5.80;;;3.50;;
7607;SDS011;3845;48.120;11.534;2023-02-01T13:47:33;5.83;;;3.80;;
7607;SDS011;3845;48.120;11.534;2023-02-01T13:50:09;4.90;;;3.70;;
7607;SDS011;3845;48.120;11.534;2023-02-01T13:52:59;6.30;;;4.10;;
7607;SDS011;3845;48.120;11.534;2023-02-01T13:55:33;7.80;;;5.20;;
7607;SDS011;3845;48.120;11.534;2023-02-01T14:00:32;7.20;;;4.83;;
7607;SDS011;3845;48.120;11.534;2023-02-01T14:03:01;5.67;;;4.20;;
7607;SDS011;3845;48.120;11.534;2023-02-01T14:26:21;4.83;;;3.23;;
7607;SDS011;3845;48.120;11.534;2023-02-01T14:28:56;5.70;;;3.53;;
7607;SDS011;3845;48.120;11.534;2023-02-01T14:34:00;5.57;;;3.40;;
7607;SDS011;3845;48.120;11.534;2023-02-01T14:36:38;5.10;;;3.73;;
7607;SDS011;3845;48.120;11.534;2023-02-01T14:39:17;5.53;;;3.30;;
7607;SDS011;3845;48.120;11.534;2023-02-01T14:41:44;6.97;;;3.10;;
7607;SDS011;3845;48.120;11.534;2023-02-01T14:50:16;4.37;;;2.57;;
7607;SDS011;3845;48.120;11.534;2023-02-01T14:52:20;5.97;;;3.10;;
7607;SDS011;3845;48.120;11.534;2023-02-01T14:54:51;4.97;;;2.90;;
7607;SDS011;3845;48.120;11.534;2023-02-01T14:57:21;6.17;;;3.50;;
7607;SDS011;3845;48.120;11.534;2023-02-01T14:59:49;10.67;;;6.73;;
7607;SDS011;3845;48.120;11.534;2023-02-01T15:02:23;4.60;;;3.37;;
7607;SDS011;3845;48.120;11.534;2023-02-01T15:04:53;6.17;;;3.30;;
7607;SDS011;3845;48.120;11.534;2023-02-01T15:07:23;3.90;;;2.90;;
7607;SDS011;3845;48.120;11.534;2023-02-01T15:09:50;4.67;;;3.20;;
7607;SDS011;3845;48.120;11.534;2023-02-01T15:12:17;5.63;;;2.97;;
7607;SDS011;3845;48.120;11.534;2023-02-01T15:14:46;5.00;;;3.13;;
7607;SDS011;3845;48.120;11.534;2023-02-01T15:19:57;4.57;;;2.60;;
7607;SDS011;3845;48.120;11.534;2023-02-01T15:22:25;5.10;;;3.07;;
7607;SDS011;3845;48.120;11.534;2023-02-01T15:24:55;3.90;;;2.70;;
7607;SDS011;3845;48.120;11.534;2023-02-01T15:27:22;8.40;;;2.97;;
7607;SDS011;3845;48.120;11.534;2023-02-01T15:29:48;5.57;;;2.83;;
7607;SDS011;3845;48.120;11.534;2023-02-01T15:32:32;5.30;;;2.90;;
7607;SDS011;3845;48.120;11.534;2023-02-01T15:34:59;6.17;;;2.90;;
7607;SDS011;3845;48.120;11.534;2023-02-01T15:37:28;3.83;;;2.60;;
7607;SDS011;3845;48.120;11.534;2023-02-01T15:40:04;5.33;;;2.60;;
7607;SDS011;3845;48.120;11.534;2023-02-01T15:42:37;5.07;;;2.90;;
7607;SDS011;3845;48.120;11.534;2023-02-01T15:45:16;4.83;;;2.87;;
7607;SDS011;3845;48.120;11.534;2023-02-01T15:47:46;6.67;;;3.60;;
7607;SDS011;3845;48.120;11.534;2023-02-01T15:50:12;7.37;;;4.40;;
7607;SDS011;3845;48.120;11.534;2023-02-01T15:52:39;4.40;;;3.20;;
7607;SDS011;3845;48.120;11.534;2023-02-01T15:55:20;3.53;;;2.83;;
7607;SDS011;3845;48.120;11.534;2023-02-01T15:57:48;5.90;;;2.97;;
7607;SDS011;3845;48.120;11.534;2023-02-01T16:02:52;10.20;;;3.63;;
7607;SDS011;3845;48.120;11.534;2023-02-01T16:05:25;8.93;;;5.30;;
7607;SDS011;3845;48.120;11.534;2023-02-01T16:08:15;8.00;;;3.70;;
7607;SDS011;3845;48.120;11.534;2023-02-01T16:10:43;6.97;;;4.20;;
7607;SDS011;3845;48.120;11.534;2023-02-01T16:13:10;5.33;;;3.30;;
7607;SDS011;3845;48.120;11.534;2023-02-01T16:15:36;5.20;;;2.60;;
7607;SDS011;3845;48.120;11.534;2023-02-01T16:18:02;5.67;;;2.77;;
7607;SDS011;3845;48.120;11.534;2023-02-01T16:20:27;4.97;;;2.70;;
7607;SDS011;3845;48.120;11.534;2023-02-01T16:22:52;5.03;;;2.50;;
7607;SDS011;3845;48.120;11.534;2023-02-01T16:25:18;7.93;;;2.50;;
7607;SDS011;3845;48.120;11.534;2023-02-01T16:27:43;4.60;;;2.47;;
7607;SDS011;3845;48.120;11.534;2023-02-01T16:30:09;5.63;;;3.20;;
7607;SDS011;3845;48.120;11.534;2023-02-01T16:32:34;5.53;;;3.20;;
7607;SDS011;3845;48.120;11.534;2023-02-01T16:35:03;5.22;;;2.92;;
7607;SDS011;3845;48.120;11.534;2023-02-01T16:37:30;4.10;;;2.70;;
7607;SDS011;3845;48.120;11.534;2023-02-01T16:39:57;5.67;;;3.10;;
7607;SDS011;3845;48.120;11.534;2023-02-01T16:42:22;6.10;;;3.00;;
7607;SDS011;3845;48.120;11.534;2023-02-01T16:44:47;4.50;;;2.67;;
7607;SDS011;3845;48.120;11.534;2023-02-01T16:47:17;4.67;;;2.57;;
7607;SDS011;3845;48.120;11.534;2023-02-01T16:49:44;7.43;;;3.97;;
7607;SDS011;3845;48.120;11.534;2023-02-01T16:52:14;7.73;;;4.83;;
7607;SDS011;3845;48.120;11.534;2023-02-01T16:54:40;6.77;;;3.23;;
7607;SDS011;3845;48.120;11.534;2023-02-01T16:57:10;7.20;;;3.30;;
7607;SDS011;3845;48.120;11.534;2023-02-01T16:59:36;4.40;;;2.63;;
7607;SDS011;3845;48.120;11.534;2023-02-01T17:02:01;5.10;;;2.97;;
7607;SDS011;3845;48.120;11.534;2023-02-01T17:04:27;4.30;;;2.83;;
7607;SDS011;3845;48.120;11.534;2023-02-01T17:06:52;4.90;;;2.87;;
7607;SDS011;3845;48.120;11.534;2023-02-01T17:09:17;6.83;;;3.00;;
7607;SDS011;3845;48.120;11.534;2023-02-01T17:11:42;7.03;;;2.80;;
7607;SDS011;3845;48.120;11.534;2023-02-01T17:14:13;8.77;;;3.13;;
7607;SDS011;3845;48.120;11.534;2023-02-01T17:16:40;6.67;;;2.80;;
7607;SDS011;3845;48.120;11.534;2023-02-01T17:19:06;9.20;;;5.37;;
7607;SDS011;3845;48.120;11.534;2023-02-01T17:21:47;10.33;;;3.07;;
7607;SDS011;3845;48.120;11.534;2023-02-01T17:24:16;4.97;;;2.80;;
7607;SDS011;3845;48.120;11.534;2023-02-01T17:26:42;6.83;;;3.00;;
7607;SDS011;3845;48.120;11.534;2023-02-01T17:29:08;6.57;;;2.70;;
7607;SDS011;3845;48.120;11.534;2023-02-01T17:31:38;8.73;;;5.13;;
7607;SDS011;3845;48.120;11.534;2023-02-01T17:34:07;9.93;;;4.20;;
7607;SDS011;3845;48.120;11.534;2023-02-01T17:36:33;7.33;;;2.90;;
7607;SDS011;3845;48.120;11.534;2023-02-01T17:39:00;7.63;;;3.47;;
7607;SDS011;3845;48.120;11.534;2023-02-01T17:41:26;8.67;;;2.63;;
7607;SDS011;3845;48.120;11.534;2023-02-01T17:43:51;6.97;;;3.10;;
7607;SDS011;3845;48.120;11.534;2023-02-01T17:46:17;8.27;;;2.70;;
7607;SDS011;3845;48.120;11.534;2023-02-01T17:48:44;5.27;;;2.67;;
7607;SDS011;3845;48.120;11.534;2023-02-01T17:51:20;6.83;;;2.73;;
7607;SDS011;3845;48.120;11.534;2023-02-01T17:53:51;5.67;;;2.60;;
7607;SDS011;3845;48.120;11.534;2023-02-01T17:56:17;10.53;;;3.87;;